createdAt,value
2017-12-05T00:01:48.506Z,17.77
2017-12-05T00:04:15.490Z,19.30
2017-12-05T00:06:42.406Z,16.70
2017-12-05T00:09:09.298Z,17.40
2017-12-05T00:11:36.585Z,17.77
2017-12-05T00:14:03.531Z,17.30
2017-12-05T00:16:30.421Z,18.20
2017-12-05T00:18:57.310Z,16.70
2017-12-05T00:21:24.225Z,17.50
2017-12-05T00:23:51.521Z,17.60
2017-12-05T00:26:18.430Z,17.37
2017-12-05T00:28:45.773Z,18.93
2017-12-05T00:31:12.697Z,18.83
2017-12-05T00:33:39.667Z,17.90
2017-12-05T00:36:06.610Z,17.00
2017-12-05T00:38:33.520Z,20.10
2017-12-05T00:41:00.412Z,17.00
2017-12-05T00:43:27.761Z,18.00
2017-12-05T00:45:55.051Z,17.30
2017-12-05T00:48:21.961Z,17.93
2017-12-05T00:50:49.274Z,17.53
2017-12-05T00:53:16.261Z,17.80
2017-12-05T00:55:43.581Z,17.93
2017-12-05T00:58:10.475Z,18.10
2017-12-05T01:00:37.762Z,17.83
2017-12-05T01:03:04.752Z,17.53
2017-12-05T01:05:31.711Z,17.70
2017-12-05T01:07:58.656Z,18.40
2017-12-05T01:10:26.011Z,17.90
2017-12-05T01:12:52.902Z,19.33
2017-12-05T01:15:19.821Z,17.80
2017-12-05T01:17:47.109Z,19.17
2017-12-05T01:20:14.021Z,17.47
2017-12-05T01:22:41.322Z,18.00
2017-12-05T01:25:08.262Z,18.70
2017-12-05T01:27:35.155Z,17.60
2017-12-05T01:30:02.439Z,17.60
2017-12-05T01:32:29.357Z,18.23
2017-12-05T01:34:56.705Z,18.00
2017-12-05T01:37:23.994Z,19.40
2017-12-05T01:39:50.909Z,19.00
2017-12-05T01:42:18.212Z,18.90
2017-12-05T01:44:45.134Z,18.57
2017-12-05T01:47:12.022Z,18.40
2017-12-05T01:49:38.954Z,21.40
2017-12-05T01:52:05.943Z,17.20
2017-12-05T01:54:33.240Z,20.30
2017-12-05T01:57:00.152Z,18.23
2017-12-05T01:59:27.461Z,17.87
2017-12-05T02:01:54.631Z,18.20
2017-12-05T02:04:21.573Z,18.10
2017-12-05T02:06:48.494Z,19.23
2017-12-05T02:09:15.392Z,20.00
2017-12-05T02:11:42.310Z,18.40
2017-12-05T02:14:09.198Z,19.20
2017-12-05T02:16:36.533Z,19.13
2017-12-05T02:19:03.850Z,21.10
2017-12-05T02:21:30.761Z,21.93
2017-12-05T02:23:57.780Z,20.97
2017-12-05T02:26:24.730Z,18.93
2017-12-05T02:28:51.645Z,20.33
2017-12-05T02:31:18.545Z,19.13
2017-12-05T02:33:45.467Z,19.40
2017-12-05T02:36:12.765Z,20.23
2017-12-05T02:38:39.686Z,22.93
2017-12-05T02:41:09.777Z,19.00
2017-12-05T02:43:36.699Z,19.80
2017-12-05T02:46:03.589Z,19.87
2017-12-05T02:48:30.885Z,18.27
2017-12-05T02:50:57.806Z,20.37
2017-12-05T02:53:24.691Z,19.93
2017-12-05T02:55:51.601Z,20.87
2017-12-05T02:58:18.517Z,17.93
2017-12-05T03:00:45.822Z,19.97
2017-12-05T03:03:12.732Z,19.10
2017-12-05T03:05:40.009Z,18.27
2017-12-05T03:08:06.926Z,19.07
2017-12-05T03:10:34.213Z,18.80
2017-12-05T03:13:01.154Z,19.67
2017-12-05T03:15:28.071Z,19.70
2017-12-05T03:17:55.362Z,20.17
2017-12-05T03:20:22.363Z,20.77
2017-12-05T03:22:49.301Z,19.80
2017-12-05T03:25:16.189Z,19.10
2017-12-05T03:27:43.097Z,19.67
2017-12-05T03:30:10.055Z,19.70
2017-12-05T03:32:37.341Z,19.47
2017-12-05T03:35:16.362Z,20.00
2017-12-05T03:37:43.261Z,20.37
2017-12-05T03:40:10.167Z,19.30
2017-12-05T03:42:37.109Z,19.30
2017-12-05T03:45:04.022Z,18.80
2017-12-05T03:47:31.313Z,19.93
2017-12-05T03:49:58.313Z,20.13
2017-12-05T03:52:25.601Z,20.00
2017-12-05T03:54:52.521Z,19.67
2017-12-05T03:57:19.877Z,20.63
2017-12-05T03:59:47.158Z,17.63
2017-12-05T04:02:14.170Z,19.37
2017-12-05T04:04:41.097Z,19.60
2017-12-05T04:07:08.070Z,17.70
2017-12-05T04:09:35.427Z,19.20
2017-12-05T04:12:02.745Z,18.10
2017-12-05T04:14:29.722Z,19.60
2017-12-05T04:16:56.669Z,20.00
2017-12-05T04:19:23.575Z,18.23
2017-12-05T04:21:50.560Z,19.37
2017-12-05T04:24:17.509Z,19.67
2017-12-05T04:26:44.454Z,19.20
2017-12-05T04:29:11.377Z,20.50
2017-12-05T04:31:38.353Z,20.07
2017-12-05T04:34:05.639Z,20.50
2017-12-05T04:36:32.566Z,20.30
2017-12-05T04:38:59.850Z,20.90
2017-12-05T04:41:26.751Z,19.27
2017-12-05T04:43:53.665Z,19.97
2017-12-05T04:46:20.557Z,19.27
2017-12-05T04:48:47.878Z,20.37
2017-12-05T04:51:14.769Z,21.60
2017-12-05T04:53:41.662Z,19.27
2017-12-05T04:56:08.577Z,19.97
2017-12-05T04:58:35.493Z,18.93
2017-12-05T05:01:02.801Z,18.23
2017-12-05T05:03:29.725Z,18.93
2017-12-05T05:05:56.649Z,19.47
2017-12-05T05:08:23.673Z,17.67
2017-12-05T05:10:50.573Z,19.73
2017-12-05T05:13:17.561Z,19.23
2017-12-05T05:15:44.449Z,18.83
2017-12-05T05:18:11.455Z,17.83
2017-12-05T05:20:38.392Z,19.70
2017-12-05T05:23:05.289Z,19.87
2017-12-05T05:25:32.173Z,18.43
2017-12-05T05:27:59.099Z,18.60
2017-12-05T05:30:26.018Z,18.17
2017-12-05T05:32:53.033Z,18.23
2017-12-05T05:35:20.354Z,18.13
2017-12-05T05:37:47.334Z,18.90
2017-12-05T05:40:14.277Z,21.27
2017-12-05T05:42:41.171Z,18.37
2017-12-05T05:45:08.077Z,19.50
2017-12-05T05:47:34.993Z,18.10
2017-12-05T05:50:02.021Z,19.50
2017-12-05T05:52:28.928Z,17.03
2017-12-05T05:54:56.306Z,19.67
2017-12-05T05:57:23.173Z,19.03
2017-12-05T05:59:50.153Z,18.80
2017-12-05T06:02:17.087Z,19.43
2017-12-05T06:04:44.007Z,21.23
2017-12-05T06:07:10.903Z,18.40
2017-12-05T06:09:38.210Z,20.13
2017-12-05T06:12:05.141Z,19.57
2017-12-05T06:14:32.069Z,18.30
2017-12-05T06:16:59.021Z,18.53
2017-12-05T06:19:25.939Z,19.63
2017-12-05T06:21:52.886Z,18.90
2017-12-05T06:24:19.837Z,18.73
2017-12-05T06:26:47.132Z,18.50
2017-12-05T06:29:14.066Z,18.53
2017-12-05T06:31:40.978Z,17.97
2017-12-05T06:34:08.289Z,15.93
2017-12-05T06:36:35.178Z,18.70
2017-12-05T06:39:02.507Z,17.80
2017-12-05T06:41:29.439Z,16.43
2017-12-05T06:43:56.329Z,14.90
2017-12-05T06:46:23.678Z,15.17
2017-12-05T06:48:50.597Z,15.80
2017-12-05T06:51:17.550Z,15.10
2017-12-05T06:53:44.461Z,14.43
2017-12-05T06:56:11.350Z,16.17
2017-12-05T06:58:38.257Z,16.87
2017-12-05T07:01:05.173Z,15.67
2017-12-05T07:03:32.495Z,13.40
2017-12-05T07:05:59.394Z,16.87
2017-12-05T07:08:26.278Z,14.87
2017-12-05T07:10:53.214Z,13.30
2017-12-05T07:13:20.949Z,15.20
2017-12-05T07:15:47.838Z,14.20
2017-12-05T07:18:14.757Z,15.67
2017-12-05T07:20:41.684Z,14.73
2017-12-05T07:23:08.594Z,13.83
2017-12-05T07:25:35.505Z,14.40
2017-12-05T07:28:02.416Z,14.10
2017-12-05T07:30:29.345Z,13.43
2017-12-05T07:32:56.653Z,14.13
2017-12-05T07:35:23.545Z,12.47
2017-12-05T07:37:50.824Z,13.10
2017-12-05T07:40:17.733Z,13.17
2017-12-05T07:42:45.045Z,13.90
2017-12-05T07:45:11.952Z,12.90
2017-12-05T07:47:38.841Z,12.90
2017-12-05T07:50:05.767Z,12.90
2017-12-05T07:52:32.649Z,13.57
2017-12-05T07:54:59.546Z,13.33
2017-12-05T07:57:26.445Z,13.50
2017-12-05T07:59:53.376Z,13.07
2017-12-05T08:02:20.285Z,11.30
2017-12-05T08:04:47.187Z,12.33
2017-12-05T08:07:14.102Z,13.17
2017-12-05T08:09:40.993Z,12.30
2017-12-05T08:12:08.440Z,12.23
2017-12-05T08:14:35.325Z,12.00
2017-12-05T08:17:02.206Z,11.57
2017-12-05T08:19:29.118Z,11.20
2017-12-05T08:21:56.012Z,12.40
2017-12-05T08:24:22.925Z,11.13
2017-12-05T08:26:49.813Z,11.93
2017-12-05T08:29:16.733Z,11.10
2017-12-05T08:31:43.629Z,11.13
2017-12-05T08:34:10.514Z,11.90
2017-12-05T08:36:37.421Z,10.87
2017-12-05T08:39:04.334Z,10.87
2017-12-05T08:41:31.249Z,10.53
2017-12-05T08:43:58.161Z,10.90
2017-12-05T08:46:25.070Z,9.47
2017-12-05T08:48:51.963Z,11.10
2017-12-05T08:51:18.893Z,10.80
2017-12-05T08:53:45.796Z,9.90
2017-12-05T08:56:12.687Z,10.87
2017-12-05T08:58:39.594Z,11.60
2017-12-05T09:01:06.474Z,11.47
2017-12-05T09:03:33.428Z,11.10
2017-12-05T09:06:00.314Z,11.50
2017-12-05T09:08:27.206Z,10.70
2017-12-05T09:10:54.127Z,10.23
2017-12-05T09:13:21.013Z,10.37
2017-12-05T09:15:47.962Z,10.43
2017-12-05T09:18:14.873Z,10.67
2017-12-05T09:20:42.152Z,9.97
2017-12-05T09:23:09.065Z,10.17
2017-12-05T09:25:35.964Z,10.50
2017-12-05T09:28:02.873Z,10.13
2017-12-05T09:30:30.157Z,9.87
2017-12-05T09:32:57.069Z,10.87
2017-12-05T09:35:24.352Z,11.40
2017-12-05T09:37:51.290Z,9.23
2017-12-05T09:40:18.178Z,10.77
2017-12-05T09:42:45.066Z,10.37
2017-12-05T09:45:12.369Z,10.10
2017-12-05T09:47:39.297Z,10.70
2017-12-05T09:50:06.227Z,9.33
2017-12-05T09:52:33.109Z,9.27
2017-12-05T09:55:00.013Z,9.80
2017-12-05T09:57:26.901Z,11.10
2017-12-05T09:59:53.833Z,9.80
2017-12-05T10:02:20.722Z,10.23
2017-12-05T10:04:47.618Z,10.33
2017-12-05T10:07:14.521Z,10.73
2017-12-05T10:09:41.829Z,9.40
2017-12-05T10:12:08.709Z,8.97
2017-12-05T10:14:35.599Z,9.60
2017-12-05T10:17:02.518Z,8.80
2017-12-05T10:19:29.806Z,9.90
2017-12-05T10:21:56.728Z,9.30
2017-12-05T10:24:24.038Z,8.80
2017-12-05T10:26:50.930Z,9.57
2017-12-05T10:29:17.817Z,10.70
2017-12-05T10:31:44.837Z,10.27
2017-12-05T10:34:11.746Z,9.83
2017-12-05T10:36:38.662Z,9.27
2017-12-05T10:39:05.680Z,10.07
2017-12-05T10:41:32.515Z,8.50
2017-12-05T10:43:59.438Z,10.47
2017-12-05T10:46:26.720Z,8.97
2017-12-05T10:48:53.622Z,9.60
2017-12-05T10:51:20.538Z,9.93
2017-12-05T10:53:47.454Z,9.47
2017-12-05T10:56:14.337Z,9.63
2017-12-05T10:58:41.310Z,9.93
2017-12-05T11:01:08.196Z,9.23
2017-12-05T11:03:35.089Z,9.50
2017-12-05T11:06:02.002Z,8.40
2017-12-05T11:08:28.914Z,9.80
2017-12-05T11:10:55.821Z,8.83
2017-12-05T11:13:22.717Z,8.80
2017-12-05T11:15:49.626Z,8.80
2017-12-05T11:18:16.529Z,8.67
2017-12-05T11:20:43.456Z,8.33
2017-12-05T11:23:10.358Z,8.93
2017-12-05T11:25:37.277Z,7.50
2017-12-05T11:28:04.158Z,8.20
2017-12-05T11:30:31.443Z,8.50
2017-12-05T11:32:58.344Z,9.00
2017-12-05T11:35:25.339Z,8.13
2017-12-05T11:37:52.293Z,8.80
2017-12-05T11:40:19.174Z,8.90
2017-12-05T11:42:46.054Z,8.63
2017-12-05T11:45:13.356Z,8.93
2017-12-05T11:47:40.238Z,8.80
2017-12-05T11:50:07.142Z,7.90
2017-12-05T11:52:34.053Z,9.43
2017-12-05T11:55:00.929Z,9.93
2017-12-05T11:57:27.865Z,8.60
2017-12-05T11:59:54.766Z,8.57
2017-12-05T12:02:22.052Z,8.23
2017-12-05T12:04:49.061Z,9.10
2017-12-05T12:07:15.946Z,8.30
2017-12-05T12:09:42.853Z,8.87
2017-12-05T12:12:09.810Z,8.77
2017-12-05T12:14:37.130Z,9.07
2017-12-05T12:17:04.117Z,8.20
2017-12-05T12:19:31.481Z,7.00
2017-12-05T12:21:58.802Z,7.73
2017-12-05T12:24:25.691Z,7.60
2017-12-05T12:26:52.957Z,8.40
2017-12-05T12:29:19.871Z,8.77
2017-12-05T12:31:47.212Z,8.73
2017-12-05T12:34:14.543Z,8.03
2017-12-05T12:36:41.510Z,8.67
2017-12-05T12:39:08.409Z,8.40
2017-12-05T12:41:35.317Z,8.17
2017-12-05T12:44:02.665Z,9.00
2017-12-05T12:46:29.617Z,8.40
2017-12-05T12:48:56.945Z,8.13
2017-12-05T12:51:23.851Z,8.37
2017-12-05T12:53:50.869Z,8.50
2017-12-05T12:56:18.174Z,7.57
2017-12-05T12:58:45.191Z,8.73
2017-12-05T13:01:12.113Z,8.67
2017-12-05T13:03:39.005Z,8.33
2017-12-05T13:06:05.889Z,7.60
2017-12-05T13:08:32.845Z,8.70
2017-12-05T13:10:59.742Z,9.00
2017-12-05T13:13:26.657Z,8.73
2017-12-05T13:15:54.034Z,9.60
2017-12-05T13:18:20.980Z,10.23
2017-12-05T13:20:47.977Z,8.27
2017-12-05T13:23:15.072Z,9.70
2017-12-05T13:25:41.977Z,8.80
2017-12-05T13:28:08.862Z,9.33
2017-12-05T13:30:35.775Z,9.07
2017-12-05T13:33:02.677Z,9.00
2017-12-05T13:35:29.661Z,9.37
2017-12-05T13:37:56.574Z,9.97
2017-12-05T13:40:23.454Z,9.00
2017-12-05T13:42:50.443Z,8.70
2017-12-05T13:45:17.326Z,8.70
2017-12-05T13:47:44.337Z,8.73
2017-12-05T13:50:11.289Z,9.43
2017-12-05T13:52:38.250Z,9.33
2017-12-05T13:55:05.136Z,9.77
2017-12-05T13:57:32.073Z,10.10
2017-12-05T13:59:59.029Z,11.00
2017-12-05T14:02:25.925Z,10.40
2017-12-05T14:04:52.845Z,10.60
2017-12-05T14:07:19.767Z,9.50
2017-12-05T14:09:47.090Z,10.40
2017-12-05T14:12:13.978Z,10.53
2017-12-05T14:14:41.330Z,10.20
2017-12-05T14:17:08.631Z,10.40
2017-12-05T14:19:35.514Z,9.27
2017-12-05T14:22:02.421Z,9.80
2017-12-05T14:24:29.308Z,10.27
2017-12-05T14:26:56.228Z,9.90
2017-12-05T14:29:23.144Z,10.10
2017-12-05T14:31:50.037Z,11.33
2017-12-05T14:34:16.957Z,9.03
2017-12-05T14:36:43.894Z,10.17
2017-12-05T14:39:10.813Z,10.10
2017-12-05T14:41:37.711Z,10.23
2017-12-05T14:44:04.590Z,11.33
2017-12-05T14:46:31.895Z,10.97
2017-12-05T14:48:58.777Z,11.47
2017-12-05T14:51:26.092Z,11.40
2017-12-05T14:53:52.982Z,11.70
2017-12-05T14:56:20.305Z,11.53
2017-12-05T14:58:47.215Z,11.33
2017-12-05T15:01:14.090Z,11.50
2017-12-05T15:03:41.065Z,12.40
2017-12-05T15:06:07.954Z,12.10
2017-12-05T15:08:34.874Z,12.20
2017-12-05T15:11:02.155Z,11.83
2017-12-05T15:13:29.034Z,11.70
2017-12-05T15:15:55.987Z,11.60
2017-12-05T15:18:22.881Z,12.43
2017-12-05T15:20:49.765Z,12.77
2017-12-05T15:23:16.689Z,12.10
2017-12-05T15:25:43.584Z,11.60
2017-12-05T15:28:10.510Z,12.70
2017-12-05T15:30:37.521Z,14.20
2017-12-05T15:33:04.409Z,13.20
2017-12-05T15:35:31.373Z,12.77
2017-12-05T15:37:58.690Z,13.00
2017-12-05T15:40:25.582Z,13.00
2017-12-05T15:42:52.941Z,12.80
2017-12-05T15:45:20.250Z,12.83
2017-12-05T15:47:47.139Z,13.00
2017-12-05T15:50:14.454Z,15.60
2017-12-05T15:52:41.574Z,15.87
2017-12-05T15:55:08.452Z,13.27
2017-12-05T15:57:35.373Z,13.60
2017-12-05T16:00:02.269Z,12.50
2017-12-05T16:02:29.162Z,14.33
2017-12-05T16:04:56.069Z,15.17
2017-12-05T16:07:23.354Z,13.30
2017-12-05T16:09:50.301Z,14.20
2017-12-05T16:12:17.189Z,15.77
2017-12-05T16:14:44.134Z,14.90
2017-12-05T16:17:11.058Z,14.20
2017-12-05T16:19:37.945Z,14.87
2017-12-05T16:22:05.258Z,14.90
2017-12-05T16:24:32.141Z,14.10
2017-12-05T16:26:59.133Z,14.50
2017-12-05T16:29:26.013Z,14.17
2017-12-05T16:31:52.941Z,15.07
2017-12-05T16:34:19.829Z,13.53
2017-12-05T16:36:47.109Z,16.13
2017-12-05T16:39:14.069Z,15.50
2017-12-05T16:41:40.957Z,14.60
2017-12-05T16:44:07.873Z,13.60
2017-12-05T16:46:34.761Z,15.20
2017-12-05T16:49:01.693Z,14.30
2017-12-05T16:51:28.583Z,13.20
2017-12-05T16:53:55.470Z,13.90
2017-12-05T16:56:22.386Z,13.87
2017-12-05T16:58:49.295Z,14.10
2017-12-05T17:01:16.190Z,13.63
2017-12-05T17:03:43.181Z,15.30
2017-12-05T17:06:10.465Z,13.57
2017-12-05T17:08:37.424Z,15.57
2017-12-05T17:11:04.308Z,15.10
2017-12-05T17:13:31.218Z,14.53
2017-12-05T17:15:58.126Z,14.70
2017-12-05T17:18:25.049Z,15.20
2017-12-05T17:20:52.000Z,14.60
2017-12-05T17:23:18.898Z,14.17
2017-12-05T17:25:45.809Z,13.93
2017-12-05T17:28:13.089Z,14.40
2017-12-05T17:30:40.003Z,14.90
2017-12-05T17:33:07.295Z,16.00
2017-12-05T17:35:34.511Z,14.20
2017-12-05T17:38:02.212Z,12.87
2017-12-05T17:40:29.334Z,12.80
2017-12-05T17:42:57.709Z,14.43
2017-12-05T17:45:24.628Z,13.67
2017-12-05T17:47:51.639Z,13.27
2017-12-05T17:50:18.527Z,14.70
2017-12-05T17:52:45.445Z,15.27
2017-12-05T17:55:12.377Z,15.83
2017-12-05T17:57:39.326Z,12.80
2017-12-05T18:00:06.198Z,12.53
2017-12-05T18:02:33.149Z,14.40
2017-12-05T18:05:00.042Z,14.83
2017-12-05T18:07:26.953Z,13.27
2017-12-05T18:09:53.952Z,11.53
2017-12-05T18:12:20.840Z,13.60
2017-12-05T18:14:47.745Z,12.90
2017-12-05T18:17:14.655Z,14.40
2017-12-05T18:19:41.977Z,13.50
2017-12-05T18:22:08.894Z,15.00
2017-12-05T18:24:35.786Z,14.77
2017-12-05T18:27:02.709Z,14.40
2017-12-05T18:29:29.601Z,15.40
2017-12-05T18:31:56.925Z,15.20
2017-12-05T18:34:23.836Z,13.57
2017-12-05T18:36:50.722Z,13.40
2017-12-05T18:39:17.639Z,16.53
2017-12-05T18:41:44.569Z,14.70
2017-12-05T18:44:11.479Z,15.20
2017-12-05T18:46:38.865Z,14.13
2017-12-05T18:49:05.773Z,13.73
2017-12-05T18:51:32.663Z,14.57
2017-12-05T18:53:59.587Z,13.60
2017-12-05T18:56:26.497Z,14.40
2017-12-05T18:58:53.429Z,15.00
2017-12-05T19:01:20.345Z,15.90
2017-12-05T19:03:47.240Z,14.43
2017-12-05T19:06:14.174Z,14.50
2017-12-05T19:08:41.084Z,14.40
2017-12-05T19:11:08.028Z,14.17
2017-12-05T19:13:34.936Z,14.17
2017-12-05T19:16:02.222Z,14.50
2017-12-05T19:18:29.130Z,15.80
2017-12-05T19:20:56.441Z,13.60
2017-12-05T19:23:23.354Z,15.27
2017-12-05T19:25:50.277Z,14.90
2017-12-05T19:28:17.587Z,14.37
2017-12-05T19:30:44.573Z,15.67
2017-12-05T19:33:11.549Z,14.80
2017-12-05T19:35:38.449Z,14.07
2017-12-05T19:38:05.393Z,15.10
2017-12-05T19:40:32.306Z,14.20
2017-12-05T19:42:59.271Z,15.10
2017-12-05T19:45:26.158Z,13.50
2017-12-05T19:47:53.433Z,14.00
2017-12-05T19:50:20.363Z,12.60
2017-12-05T19:52:47.646Z,14.90
2017-12-05T19:55:14.530Z,14.00
2017-12-05T19:57:41.572Z,14.27
2017-12-05T20:00:08.414Z,12.53
2017-12-05T20:02:35.307Z,14.07
2017-12-05T20:05:02.636Z,14.10
2017-12-05T20:07:29.518Z,14.30
2017-12-05T20:09:56.415Z,14.50
2017-12-05T20:12:23.337Z,14.63
2017-12-05T20:14:50.273Z,13.40
2017-12-05T20:17:17.204Z,13.40
2017-12-05T20:19:44.140Z,15.90
2017-12-05T20:22:11.081Z,13.13
2017-12-05T20:24:38.366Z,14.63
2017-12-05T20:27:05.318Z,13.93
2017-12-05T20:29:32.261Z,14.80
2017-12-05T20:31:59.165Z,14.03
2017-12-05T20:34:26.502Z,13.80
2017-12-05T20:36:53.391Z,15.53
2017-12-05T20:39:20.343Z,14.93
2017-12-05T20:41:47.257Z,14.77
2017-12-05T20:44:14.545Z,14.27
2017-12-05T20:46:41.449Z,14.67
2017-12-05T20:49:08.404Z,14.10
2017-12-05T20:51:35.690Z,14.43
2017-12-05T20:54:02.718Z,14.77
2017-12-05T20:56:30.504Z,13.87
2017-12-05T20:58:57.418Z,15.80
2017-12-05T21:01:24.785Z,14.90
2017-12-05T21:03:52.073Z,14.73
2017-12-05T21:06:19.074Z,15.70
2017-12-05T21:08:46.467Z,15.33
2017-12-05T21:11:13.470Z,15.30
2017-12-05T21:13:40.361Z,14.87
2017-12-05T21:16:07.310Z,14.77
2017-12-05T21:18:34.193Z,15.70
2017-12-05T21:21:01.149Z,16.70
2017-12-05T21:23:28.146Z,15.60
2017-12-05T21:25:55.158Z,14.70
2017-12-05T21:28:22.503Z,15.90
2017-12-05T21:30:49.397Z,15.13
2017-12-05T21:33:16.398Z,16.30
2017-12-05T21:35:43.350Z,15.87
2017-12-05T21:38:10.681Z,16.20
2017-12-05T21:40:37.569Z,15.20
2017-12-05T21:43:04.589Z,15.00
2017-12-05T21:45:31.478Z,16.63
2017-12-05T21:47:58.363Z,14.97
2017-12-05T21:50:25.276Z,15.10
2017-12-05T21:52:52.171Z,16.03
2017-12-05T21:55:19.096Z,16.80
2017-12-05T21:57:45.989Z,15.87
2017-12-05T22:00:13.326Z,16.80
2017-12-05T22:02:40.682Z,16.40
2017-12-05T22:05:07.564Z,16.30
2017-12-05T22:07:34.474Z,17.20
2017-12-05T22:10:01.758Z,15.17
2017-12-05T22:12:28.670Z,17.23
2017-12-05T22:14:55.622Z,17.00
2017-12-05T22:17:22.932Z,16.40
2017-12-05T22:19:49.825Z,16.10
2017-12-05T22:22:17.170Z,18.10
2017-12-05T22:24:44.089Z,16.07
2017-12-05T22:27:11.067Z,17.10
2017-12-05T22:29:37.957Z,15.77
2017-12-05T22:32:04.864Z,16.43
2017-12-05T22:34:32.166Z,16.10
2017-12-05T22:36:59.113Z,15.83
2017-12-05T22:39:26.111Z,16.90
2017-12-05T22:41:53.390Z,15.80
2017-12-05T22:44:20.405Z,16.20
2017-12-05T22:46:47.317Z,15.93
2017-12-05T22:49:14.294Z,17.23
2017-12-05T22:51:41.209Z,17.27
2017-12-05T22:54:08.190Z,16.70
2017-12-05T22:56:35.145Z,16.97
2017-12-05T22:59:02.453Z,16.93
2017-12-05T23:01:29.418Z,15.87
2017-12-05T23:03:56.301Z,15.37
2017-12-05T23:06:23.616Z,15.40
2017-12-05T23:08:50.542Z,17.00
2017-12-05T23:11:17.529Z,16.47
2017-12-05T23:13:44.425Z,15.20
2017-12-05T23:16:11.334Z,15.23
2017-12-05T23:18:38.673Z,16.20
2017-12-05T23:21:05.648Z,16.00
2017-12-05T23:23:32.953Z,17.20
2017-12-05T23:25:59.929Z,15.90
2017-12-05T23:28:26.886Z,16.40
2017-12-05T23:30:54.166Z,17.33
2017-12-05T23:33:21.121Z,16.40
2017-12-05T23:35:48.117Z,16.63
2017-12-05T23:38:15.073Z,16.40
2017-12-05T23:40:42.018Z,17.03
2017-12-05T23:43:08.960Z,16.30
2017-12-05T23:45:36.313Z,17.50
2017-12-05T23:48:03.267Z,16.10
2017-12-05T23:50:30.188Z,16.80
2017-12-05T23:52:57.159Z,15.30
2017-12-05T23:55:24.037Z,16.80
2017-12-05T23:57:50.926Z,16.70
